Map

Track Data

SID SEASON NUMBER BASIN SUBBASIN NAME ISO_TIME NATURE LAT LON WMO_WIND WMO_PRES WMO_AGENCY TRACK_TYPE DIST2LAND LANDFALL IFLAG USA_AGENCY USA_ATCF_ID USA_LAT USA_LON USA_RECORD USA_STATUS USA_WIND USA_PRES USA_SSHS USA_R34_NE USA_R34_SE USA_R34_SW USA_R34_NW USA_R50_NE USA_R50_SE USA_R50_SW USA_R50_NW USA_R64_NE USA_R64_SE USA_R64_SW USA_R64_NW USA_POCI USA_ROCI USA_RMW USA_EYE TOKYO_LAT TOKYO_LON TOKYO_GRADE TOKYO_WIND TOKYO_PRES TOKYO_R50_DIR TOKYO_R50_LONG TOKYO_R50_SHORT TOKYO_R30_DIR TOKYO_R30_LONG TOKYO_R30_SHORT TOKYO_LAND CMA_LAT CMA_LON CMA_CAT CMA_WIND CMA_PRES HKO_LAT HKO_LON HKO_CAT HKO_WIND HKO_PRES NEWDELHI_LAT NEWDELHI_LON NEWDELHI_GRADE NEWDELHI_WIND NEWDELHI_PRES NEWDELHI_CI NEWDELHI_DP NEWDELHI_POCI REUNION_LAT REUNION_LON REUNION_TYPE REUNION_WIND REUNION_PRES REUNION_TNUM REUNION_CI REUNION_RMW REUNION_R34_NE REUNION_R34_SE REUNION_R34_SW REUNION_R34_NW REUNION_R50_NE REUNION_R50_SE REUNION_R50_SW REUNION_R50_NW REUNION_R64_NE REUNION_R64_SE REUNION_R64_SW REUNION_R64_NW BOM_LAT BOM_LON BOM_TYPE BOM_WIND BOM_PRES BOM_TNUM BOM_CI BOM_RMW BOM_R34_NE BOM_R34_SE BOM_R34_SW BOM_R34_NW BOM_R50_NE BOM_R50_SE BOM_R50_SW BOM_R50_NW BOM_R64_NE BOM_R64_SE BOM_R64_SW BOM_R64_NW BOM_ROCI BOM_POCI BOM_EYE BOM_POS_METHOD BOM_PRES_METHOD NADI_LAT NADI_LON NADI_CAT NADI_WIND NADI_PRES WELLINGTON_LAT WELLINGTON_LON WELLINGTON_WIND WELLINGTON_PRES DS824_LAT DS824_LON DS824_STAGE DS824_WIND DS824_PRES TD9636_LAT TD9636_LON TD9636_STAGE TD9636_WIND TD9636_PRES TD9635_LAT TD9635_LON TD9635_WIND TD9635_PRES TD9635_ROCI NEUMANN_LAT NEUMANN_LON NEUMANN_CLASS NEUMANN_WIND NEUMANN_PRES MLC_LAT MLC_LON MLC_CLASS MLC_WIND MLC_PRES USA_GUST BOM_GUST BOM_GUST_PER REUNION_GUST REUNION_GUST_PER USA_SEAHGT USA_SEARAD_NE USA_SEARAD_SE USA_SEARAD_SW USA_SEARAD_NW STORM_SPEED STORM_DIR
1987312N09095 1987 95 NI BB NOT_NAMED 1987-11-08 00:00:00 NR 9.30000 95.2000 main 343 343 O_________O___ jtwc_io IO061987 9.30000 95.2000 20 -1 9.30000 95.2000 1 20 7 326
1987312N09095 1987 95 NI BB NOT_NAMED 1987-11-08 03:00:00 NR 9.59662 94.9990 main 370 370 P_________P___ IO061987 9.60252 95.0026 20 -1 9.59072 94.9955 1 20 7 326
1987312N09095 1987 95 NI BB NOT_NAMED 1987-11-08 06:00:00 NR 9.89255 94.7963 main 400 400 O_________P___ jtwc_io IO061987 9.90000 94.8000 20 -1 9.88511 94.7927 1 20 7 326
1987312N09095 1987 95 NI BB NOT_NAMED 1987-11-08 09:00:00 NR 10.1897 94.5930 main 427 427 P_________P___ IO061987 10.1925 94.5925 20 -1 10.1869 94.5935 1 20 7 327
1987312N09095 1987 95 NI BB NOT_NAMED 1987-11-08 12:00:00 NR 10.5000 94.4000 main 448 448 O_________O___ jtwc_io IO061987 10.5000 94.4000 20 -1 10.5000 94.4000 1 20 7 331
1987312N09095 1987 95 NI BB NOT_NAMED 1987-11-08 15:00:00 NR 10.8380 94.2289 main 470 470 P_________P___ IO061987 10.8500 94.2425 20 -1 10.8259 94.2154 1 21 8 335
1987312N09095 1987 95 NI BB NOT_NAMED 1987-11-08 18:00:00 NR 11.1787 94.0738 main 485 484 O_________P___ jtwc_io IO061987 11.2000 94.1000 20 -1 11.1575 94.0476 1 22 7 335
1987312N09095 1987 95 NI BB NOT_NAMED 1987-11-08 21:00:00 NR 11.4964 93.9205 main 484 452 P_________P___ IO061987 11.5075 93.9350 22 -1 11.4853 93.9060 1 23 7 337
1987312N09095 1987 95 NI BB NOT_NAMED 1987-11-09 00:00:00 NR 11.8000 93.8000 main 452 421 O_________O___ jtwc_io IO061987 11.8000 93.8000 25 -1 11.8000 93.8000 1 25 6 343
1987312N09095 1987 95 NI BB NOT_NAMED 1987-11-09 03:00:00 NR 12.1004 93.7352 main 421 388 P_________P___ IO061987 12.1075 93.7275 25 -1 12.0934 93.7429 1 25 6 351
1987312N09095 1987 95 NI BB NOT_NAMED 1987-11-09 06:00:00 NR 12.3862 93.7098 main 388 366 O_________P___ jtwc_io IO061987 12.4000 93.7000 25 -1 12.3724 93.7197 1 25 6 356
1987312N09095 1987 95 NI BB NOT_NAMED 1987-11-09 09:00:00 NR 12.6489 93.7058 main 366 333 P_________P___ IO061987 12.6575 93.7000 25 -1 12.6403 93.7117 1 25 5 357
1987312N09095 1987 95 NI BB NOT_NAMED 1987-11-09 12:00:00 NR 12.9000 93.7000 main 333 300 O_________O___ jtwc_io IO061987 12.9000 93.7000 25 -1 12.9000 93.7000 1 25 5 357
1987312N09095 1987 95 NI BB NOT_NAMED 1987-11-09 15:00:00 NR 13.1759 93.6716 main 300 282 P_________P___ IO061987 13.1500 93.6575 25 -1 13.2018 93.6856 1 25 6 352
1987312N09095 1987 95 NI BB NOT_NAMED 1987-11-09 18:00:00 NR 13.4449 93.6300 main 282 250 O_________P___ jtwc_io IO061987 13.4000 93.6000 25 -1 13.4899 93.6600 1 25 5 351
1987312N09095 1987 95 NI BB NOT_NAMED 1987-11-09 21:00:00 NR 13.7065 93.5922 main 250 233 P_________P___ IO061987 13.6800 93.5800 25 -1 13.7330 93.6044 1 25 5 345
1987312N09095 1987 95 NI BB NOT_NAMED 1987-11-10 00:00:00 NR 13.9000 93.5000 main 233 228 O_________O___ jtwc_io IO061987 13.9000 93.5000 25 -1 13.9000 93.5000 1 25 4 313
1987312N09095 1987 95 NI BB NOT_NAMED 1987-11-10 03:00:00 NR 13.9763 93.2988 main 233 233 P_________P___ IO061987 14.0026 93.2725 25 -1 13.9501 93.3251 1 25 4 278
1987312N09095 1987 95 NI BB NOT_NAMED 1987-11-10 06:00:00 NR 13.9626 93.0511 main 245 245 O_________P___ jtwc_io IO061987 14.0000 93.0000 25 -1 13.9251 93.1022 1 25 5 259
1987312N09095 1987 95 NI BB NOT_NAMED 1987-11-10 09:00:00 NR 13.8888 92.8266 main 273 273 P_________P___ IO061987 13.9149 92.7999 25 -1 13.8626 92.8532 1 25 5 250
1987312N09095 1987 95 NI BB NOT_NAMED 1987-11-10 12:00:00 NR 13.8000 92.6000 main 295 295 O_________O___ jtwc_io IO061987 13.8000 92.6000 25 -1 13.8000 92.6000 1 25 4 250
1987312N09095 1987 95 NI BB NOT_NAMED 1987-11-10 15:00:00 NR 13.7415 92.3988 main 318 318 P_________P___ IO061987 13.7275 92.3500 25 -1 13.7555 92.4475 1 25 4 257
1987312N09095 1987 95 NI BB NOT_NAMED 1987-11-10 18:00:00 NR 13.7118 92.1920 main 333 333 O_________P___ jtwc_io IO061987 13.7000 92.1000 25 -1 13.7237 92.2839 1 25 4 266
1987312N09095 1987 95 NI BB NOT_NAMED 1987-11-10 21:00:00 NR 13.7137 92.0028 main 349 349 P_________P___ IO061987 13.6972 91.9522 25 -1 13.7301 92.0534 1 25 5 280
1987312N09095 1987 95 NI BB NOT_NAMED 1987-11-11 00:00:00 NR 13.8000 91.7000 main 364 364 O_________O___ jtwc_io IO061987 13.8000 91.7000 25 -1 13.8000 91.7000 1 25 9 293
1987312N09095 1987 95 NI BB NOT_NAMED 1987-11-11 03:00:00 NR 14.0430 91.1855 main 392 386 P_________P___ IO061987 14.0850 91.1828 25 -1 14.0010 91.1881 1 26 13 295
1987312N09095 1987 95 NI BB NOT_NAMED 1987-11-11 06:00:00 NR 14.3287 90.5234 main 440 440 O_________P___ jtwc_io IO061987 14.4000 90.5000 25 -1 14.2573 90.5468 1 27 14 291
1987312N09095 1987 95 NI BB NOT_NAMED 1987-11-11 09:00:00 NR 14.5524 89.7972 main 497 497 P_________P___ IO061987 14.5948 89.7875 27 -1 14.5100 89.8070 1 28 15 284
1987312N09095 1987 95 NI BB NOT_NAMED 1987-11-11 12:00:00 NR 14.7000 89.0000 main 576 576 O_________O___ jtwc_io IO061987 14.7000 89.0000 30 -1 14.7000 89.0000 1 30 16 277
1987312N09095 1987 95 NI BB NOT_NAMED 1987-11-11 15:00:00 NR 14.7406 88.1668 main 594 527 P_________P___ IO061987 14.7298 88.1723 32 -1 14.7514 88.1612 1 31 17 271
1987312N09095 1987 95 NI BB NOT_NAMED 1987-11-11 18:00:00 NR 14.7166 87.2856 main 527 471 O_________P___ jtwc_io IO061987 14.7000 87.3000 35 0 14.7332 87.2711 1 32 17 268
1987312N09095 1987 95 NI BB NOT_NAMED 1987-11-11 21:00:00 NR 14.6766 86.3779 main 471 409 P_________P___ IO061987 14.6800 86.3852 35 0 14.6732 86.3706 1 33 17 266
1987312N09095 1987 95 NI BB NOT_NAMED 1987-11-12 00:00:00 NR 14.6000 85.5000 main 409 356 O_________O___ jtwc_io IO061987 14.6000 85.5000 35 0 14.6000 85.5000 2 35 16 261
1987312N09095 1987 95 NI BB NOT_NAMED 1987-11-12 03:00:00 NR 14.4240 84.7095 main 356 315 P_________P___ IO061987 14.3770 84.7270 37 0 14.4710 84.6920 2 37 15 258
1987312N09095 1987 95 NI BB NOT_NAMED 1987-11-12 06:00:00 NR 14.2745 83.9612 main 315 287 O_________P___ jtwc_io IO061987 14.2000 84.0000 40 0 14.3490 83.9223 2 40 15 263
1987312N09095 1987 95 NI BB NOT_NAMED 1987-11-12 09:00:00 NR 14.2525 83.2133 main 273 224 P_________P___ IO061987 14.2024 83.2349 42 0 14.3025 83.1916 2 42 14 275
1987312N09095 1987 95 NI BB NOT_NAMED 1987-11-12 12:00:00 NR 14.4000 82.5000 main 224 147 O_________O___ jtwc_io IO061987 14.4000 82.5000 45 0 14.4000 82.5000 2 45 15 291
1987312N09095 1987 95 NI BB NOT_NAMED 1987-11-12 15:00:00 NR 14.7670 81.8102 main 139 64 P_________P___ IO061987 14.7898 81.8276 47 0 14.7441 81.7929 2 43 16 304
1987312N09095 1987 95 NI BB NOT_NAMED 1987-11-12 18:00:00 NR 15.2650 81.1629 main 55 10 O_________P___ jtwc_io IO061987 15.3000 81.2000 50 0 15.2299 81.1259 2 42 16 310
1987312N09095 1987 95 NI BB NOT_NAMED 1987-11-12 21:00:00 NR 15.7954 80.5379 main 0 0 P_________P___ IO061987 15.8150 80.5552 45 0 15.7757 80.5206 2 41 15 313
1987312N09095 1987 95 NI BB NOT_NAMED 1987-11-13 00:00:00 NR 16.3000 80.0000 main 0 0 O_________O___ jtwc_io IO061987 16.3000 80.0000 40 0 16.3000 80.0000 2 40 13 315
1987312N09095 1987 95 NI BB NOT_NAMED 1987-11-13 03:00:00 NR 16.7058 79.5920 main 0 0 P_________P___ IO061987 16.6722 79.6046 35 0 16.7394 79.5795 2 35 10 317
1987312N09095 1987 95 NI BB NOT_NAMED 1987-11-13 06:00:00 NR 17.0511 79.2704 main 0 0 O_________P___ jtwc_io IO061987 17.0000 79.3000 30 -1 17.1022 79.2409 2 30 9 319
1987312N09095 1987 95 NI BB NOT_NAMED 1987-11-13 09:00:00 NR 17.3783 78.9799 main 0 0 P_________P___ IO061987 17.3427 79.0029 25 -1 17.4139 78.9569 2 25 9 320
1987312N09095 1987 95 NI BB NOT_NAMED 1987-11-13 12:00:00 NR 17.7000 78.7000 main 0 O_________O___ jtwc_io IO061987 17.7000 78.7000 20 -1 17.7000 78.7000 1 20 8 321

About IBTrACS Database

This database is a web-friendly format of International Best Track Archive for Climate Stewardship (IBTrACS), a global best track data archive curated by NOAA dating back to 1842.

Updated: 2021-11-26